Time;durP1;ratioP1;P1;durP2;ratioP2;P2;SDS_P1;SDS_P2;PMS_P1;PMS_P2;Temp;Humidity;BMP_temperature;BMP_pressure;BME280_temperature;BME280_humidity;BME280_pressure;Samples;Min_cycle;Max_cycle;Signal;HPM_P1;HPM_P2
2021/04/05 00:01:29;;;;;;;8.18;4.97;;;;;;;1.54;64.57;96381.48;1733385;80;22140;-54
2021/04/05 00:03:59;;;;;;;9.05;4.90;;;;;;;1.51;64.37;96372.64;1738692;80;21592;-54
2021/04/05 00:06:27;;;;;;;6.23;4.60;;;;;;;1.43;64.42;96371.68;1739751;80;21136;-54
2021/04/05 00:08:56;;;;;;;6.08;4.20;;;;;;;1.36;64.52;96368.13;1749645;81;21067;-54
2021/04/05 00:11:24;;;;;;;6.45;4.25;;;;;;;1.27;64.77;96365.02;1755391;81;21139;-54
2021/04/05 00:13:53;;;;;;;7.87;4.03;;;;;;;1.21;64.87;96361.86;1756068;80;22108;-54
2021/04/05 00:16:22;;;;;;;6.60;4.37;;;;;;;1.16;65.02;96359.92;1753744;81;21079;-54
2021/04/05 00:18:52;;;;;;;8.50;4.40;;;;;;;1.06;65.14;96353.03;1752907;80;21051;-54
2021/04/05 00:21:21;;;;;;;6.72;4.30;;;;;;;1.03;65.24;96351.41;1733561;81;21094;-54
2021/04/05 00:23:52;;;;;;;9.28;5.17;;;;;;;1.04;65.35;96352.27;1728001;81;21060;-54
2021/04/05 00:26:20;;;;;;;9.38;5.12;;;;;;;1.01;65.42;96346.81;1756185;80;21630;-54
2021/04/05 00:28:49;;;;;;;;;;;;;;;1.03;65.47;96342.92;1757139;80;21092;-55
2021/04/05 00:31:18;;;;;;;7.60;5.62;;;;;;;1.07;65.36;96342.76;1752600;81;20245;-54
2021/04/05 00:33:46;;;;;;;7.42;5.70;;;;;;;1.11;65.34;96340.92;1754101;80;21163;-54
2021/04/05 00:36:14;;;;;;;7.35;5.28;;;;;;;1.21;65.25;96335.02;1756159;81;21548;-54
2021/04/05 00:38:42;;;;;;;6.87;5.30;;;;;;;1.33;65.21;96337.10;1748234;81;21387;-54
2021/04/05 00:41:13;;;;;;;7.40;5.47;;;;;;;1.45;64.99;96339.20;1753070;81;21183;-56
2021/04/05 00:43:45;;;;;;;8.28;5.65;;;;;;;1.55;64.63;96332.02;1752723;81;21080;-54
2021/04/05 00:46:13;;;;;;;7.75;5.90;;;;;;;1.62;64.26;96328.77;1753812;81;21163;-54
2021/04/05 00:48:40;;;;;;;7.80;5.45;;;;;;;1.64;64.01;96322.72;1752675;81;21060;-55
2021/04/05 00:51:12;;;;;;;7.37;5.55;;;;;;;1.69;63.77;96322.97;1755358;81;21461;-55
2021/04/05 00:53:43;;;;;;;8.60;6.10;;;;;;;1.64;63.66;96317.60;1756108;81;21075;-55
2021/04/05 00:56:13;;;;;;;8.03;5.95;;;;;;;1.63;63.70;96320.22;1754909;81;21479;-54
2021/04/05 00:58:43;;;;;;;8.80;6.20;;;;;;;1.64;63.75;96312.91;1755584;81;21171;-55
2021/04/05 01:01:14;;;;;;;10.38;5.92;;;;;;;1.65;63.61;96306.92;1755536;80;21249;-55
2021/04/05 01:03:43;;;;;;;11.20;7.15;;;;;;;1.56;63.65;96308.55;1753241;81;21491;-55
2021/04/05 01:06:30;;;;;;;11.10;6.75;;;;;;;1.42;63.90;96302.70;1740200;80;21071;-54
2021/04/05 01:08:59;;;;;;;11.75;6.53;;;;;;;1.32;64.13;96300.12;1699388;83;21145;-54
2021/04/05 01:11:29;;;;;;;9.53;5.03;;;;;;;1.14;64.50;96299.09;1747779;81;26560;-54
2021/04/05 01:13:57;;;;;;;8.20;4.83;;;;;;;0.98;64.91;96298.83;1728310;81;21119;-54
2021/04/05 01:16:28;;;;;;;10.45;5.05;;;;;;;0.83;65.36;96290.83;1754403;81;22264;-54
2021/04/05 01:18:58;;;;;;;7.95;4.78;;;;;;;0.78;65.71;96288.08;1753749;81;21567;-54
2021/04/05 01:21:26;;;;;;;5.58;4.30;;;;;;;0.72;65.80;96284.00;1754792;81;21108;-54
2021/04/05 01:23:54;;;;;;;6.03;4.22;;;;;;;0.68;66.03;96279.45;1753689;80;21583;-54
2021/04/05 01:26:22;;;;;;;7.08;4.80;;;;;;;0.65;66.12;96280.84;1755545;81;21079;-54
2021/04/05 01:28:49;;;;;;;6.08;4.60;;;;;;;0.66;66.18;96274.03;1755803;81;21994;-55
2021/04/05 01:31:17;;;;;;;7.08;4.90;;;;;;;0.65;66.07;96274.45;1755815;80;21155;-54
2021/04/05 01:33:45;;;;;;;7.35;5.03;;;;;;;0.61;66.17;96269.09;1749244;81;21119;-55
2021/04/05 01:36:16;;;;;;;8.63;4.60;;;;;;;0.54;66.26;96269.75;1747863;81;21686;-54
2021/04/05 01:38:48;;;;;;;7.30;4.65;;;;;;;0.46;66.42;96267.06;1755440;81;21154;-55
2021/04/05 01:41:30;;;;;;;5.70;4.15;;;;;;;0.40;66.62;96262.20;1745665;81;22062;-54
2021/04/05 01:43:59;;;;;;;5.83;4.15;;;;;;;0.34;66.75;96260.68;1755797;81;21485;-54
2021/04/05 01:46:30;;;;;;;7.03;4.28;;;;;;;0.32;66.83;96260.73;1755687;81;21135;-54
2021/04/05 01:49:00;;;;;;;5.55;4.33;;;;;;;0.31;66.92;96253.13;1745530;81;21064;-54
2021/04/05 01:51:28;;;;;;;6.62;4.30;;;;;;;0.33;66.95;96253.93;1728816;81;21088;-54
2021/04/05 01:53:56;;;;;;;;;;;;;;;0.35;66.88;96256.80;1758429;80;21612;-54
2021/04/05 01:56:24;;;;;;;6.72;4.03;;;;;;;0.30;66.96;96251.03;1754384;80;20216;-54
2021/04/05 01:58:53;;;;;;;6.50;4.70;;;;;;;0.22;67.26;96244.54;1755793;81;21049;-54
2021/04/05 02:01:29;;;;;;;7.70;5.22;;;;;;;0.20;67.41;96241.19;1755075;80;21492;-54
2021/04/05 02:03:57;;;;;;;6.25;4.70;;;;;;;0.15;67.48;96237.09;1754136;81;21099;-53
2021/04/05 02:06:32;;;;;;;7.00;4.62;;;;;;;0.20;67.58;96233.11;1709812;81;21369;-54
2021/04/05 02:08:59;;;;;;;6.37;4.25;;;;;;;0.25;67.53;96229.13;1753120;81;21091;-54
2021/04/05 02:11:37;;;;;;;6.97;4.50;;;;;;;0.31;67.33;96225.91;1692374;81;21067;-53
2021/04/05 02:14:08;;;;;;;7.60;4.25;;;;;;;0.30;67.11;96228.06;1752684;81;21362;-54
2021/04/05 02:16:36;;;;;;;5.80;4.50;;;;;;;0.28;67.23;96223.89;1752842;81;21531;-56
2021/04/05 02:19:04;;;;;;;6.05;3.90;;;;;;;0.29;67.24;96223.02;1738798;81;21372;-54
2021/04/05 02:21:32;;;;;;;5.17;4.12;;;;;;;0.36;67.21;96219.34;1754514;81;21103;-54
2021/04/05 02:24:05;;;;;;;5.83;4.08;;;;;;;0.39;66.83;96219.23;1752536;81;21067;-54
2021/04/05 02:26:35;;;;;;;5.15;3.70;;;;;;;0.34;66.86;96218.56;1753724;81;21580;-54
2021/04/05 02:29:04;;;;;;;6.67;3.95;;;;;;;0.31;66.78;96211.02;1755814;80;21182;-54
2021/04/05 02:31:34;;;;;;;4.83;3.80;;;;;;;0.33;66.79;96209.27;1753633;81;21482;-54
2021/04/05 02:34:04;;;;;;;6.85;3.80;;;;;;;0.33;66.67;96211.37;1752865;81;21203;-54
2021/04/05 02:36:33;;;;;;;5.10;3.70;;;;;;;0.30;66.69;96206.37;1755985;80;21068;-53
2021/04/05 02:39:05;;;;;;;4.03;3.50;;;;;;;0.32;66.71;96205.86;1755911;81;21079;-54
2021/04/05 02:41:37;;;;;;;5.72;3.65;;;;;;;0.38;66.54;96205.25;1754733;81;21183;-54
2021/04/05 02:44:06;;;;;;;4.65;3.87;;;;;;;0.42;66.35;96207.64;1754213;80;21475;-54
2021/04/05 02:46:36;;;;;;;5.75;4.03;;;;;;;0.45;66.19;96196.50;1755890;80;21202;-54
2021/04/05 02:49:12;;;;;;;4.00;3.58;;;;;;;0.45;65.87;96199.05;1727713;81;21127;-54
2021/04/05 02:51:46;;;;;;;4.53;3.75;;;;;;;0.41;65.80;96186.85;1754074;81;21067;-54
2021/04/05 02:54:15;;;;;;;5.47;3.20;;;;;;;0.34;65.92;96192.59;1752829;81;21123;-53
2021/04/05 02:56:43;;;;;;;7.15;3.95;;;;;;;0.34;66.02;96186.67;1725484;81;21453;-53
2021/04/05 02:59:11;;;;;;;5.47;3.70;;;;;;;0.30;65.96;96183.40;1725420;81;21106;-53
2021/04/05 03:01:39;;;;;;;5.70;3.90;;;;;;;0.30;65.94;96181.30;1753688;81;21568;-53
2021/04/05 03:04:08;;;;;;;5.35;3.90;;;;;;;0.28;66.04;96184.33;1754661;81;21055;-54
2021/04/05 03:06:36;;;;;;;6.53;3.98;;;;;;;0.31;66.02;96182.95;1755691;80;21182;-53
2021/04/05 03:09:06;;;;;;;4.78;3.35;;;;;;;0.32;65.82;96177.79;1755280;81;21267;-53
2021/04/05 03:11:36;;;;;;;5.17;4.00;;;;;;;0.25;65.88;96176.36;1756468;81;21231;-53
2021/04/05 03:14:09;;;;;;;5.47;3.90;;;;;;;0.19;66.08;96175.30;1756560;81;21595;-54
2021/04/05 03:16:39;;;;;;;4.10;3.55;;;;;;;0.12;66.21;96174.69;1733653;82;21143;-54
2021/04/05 03:19:07;;;;;;;4.17;3.20;;;;;;;0.09;66.36;96172.70;1740876;82;21584;-55
2021/04/05 03:21:35;;;;;;;5.25;3.60;;;;;;;-0.03;66.76;96160.77;1749663;81;22157;-54
2021/04/05 03:24:05;;;;;;;3.87;3.08;;;;;;;-0.07;66.96;96159.64;1764821;80;21082;-54
2021/04/05 03:26:32;;;;;;;4.45;3.75;;;;;;;-0.10;67.19;96156.77;1765238;79;21183;-54
2021/04/05 03:29:00;;;;;;;7.30;3.52;;;;;;;-0.06;67.35;96149.84;1786466;79;21516;-55
2021/04/05 03:31:31;;;;;;;4.65;3.33;;;;;;;-0.01;67.29;96151.78;1764374;81;21616;-53
2021/04/05 03:34:03;;;;;;;15.53;9.60;;;;;;;0.01;67.26;96152.55;1740565;82;21374;-54
2021/04/05 03:36:40;;;;;;;22.25;10.20;;;;;;;0.04;67.15;96150.34;1760523;81;21066;-53
2021/04/05 03:39:12;;;;;;;34.92;13.80;;;;;;;0.08;67.03;96148.91;1737390;81;21116;-55
2021/04/05 03:41:58;;;;;;;11.40;5.72;;;;;;;0.05;66.79;96146.47;1756022;79;21170;-54
2021/04/05 03:44:45;;;;;;;4.12;3.58;;;;;;;0.03;66.66;96138.02;1743784;80;21171;-57
2021/04/05 03:47:31;;;;;;;5.30;3.90;;;;;;;0.07;66.63;96134.94;1767209;80;21400;-55
2021/04/05 03:50:16;;;;;;;6.58;4.45;;;;;;;0.12;66.26;96122.39;1760397;79;21176;-54
2021/04/05 03:52:58;;;;;;;5.75;4.05;;;;;;;0.12;66.38;96123.66;1753698;79;21237;-54
2021/04/05 03:55:28;;;;;;;6.25;4.45;;;;;;;0.20;66.17;96122.11;1752643;80;21139;-55
2021/04/05 03:57:57;;;;;;;7.08;4.92;;;;;;;0.25;65.67;96115.57;1732861;80;21186;-54
2021/04/05 04:00:37;;;;;;;7.20;4.67;;;;;;;0.27;65.49;96103.58;1876059;75;22394;-55
2021/04/05 04:03:09;;;;;;;11.38;5.85;;;;;;;0.17;65.50;96106.46;1764869;79;21047;-56
2021/04/05 04:05:46;;;;;;;9.80;5.45;;;;;;;0.12;65.54;96096.88;1809018;77;21374;-55
2021/04/05 04:08:26;;;;;;;8.50;5.42;;;;;;;0.11;65.63;96097.75;1838051;77;21109;-56
2021/04/05 04:10:49;;;;;;;9.18;5.87;;;;;;;0.21;65.63;96104.63;1828054;77;21075;-55
2021/04/05 04:13:18;;;;;;;10.28;5.50;;;;;;;0.51;65.19;96097.97;1832255;77;21136;-55
2021/04/05 04:15:50;;;;;;;8.53;3.87;;;;;;;0.88;63.99;96090.16;1835765;77;21024;-55
2021/04/05 04:18:18;;;;;;;7.53;4.33;;;;;;;1.18;62.33;96082.95;1819822;77;23031;-54
2021/04/05 04:20:47;;;;;;;16.73;9.53;;;;;;;1.45;61.64;96082.26;1830478;77;21068;-53
2021/04/05 04:23:15;;;;;;;102.80;40.60;;;;;;;1.77;60.92;96078.75;1843313;77;20994;-56
2021/04/05 04:25:43;;;;;;;18.77;8.18;;;;;;;2.15;60.27;96074.11;1801386;78;21513;-56
2021/04/05 04:28:17;;;;;;;15.58;7.33;;;;;;;2.62;59.09;96073.66;1845482;77;21199;-55
2021/04/05 04:30:44;;;;;;;8.65;5.30;;;;;;;3.18;57.62;96078.69;1839399;77;21195;-55
2021/04/05 04:33:12;;;;;;;8.85;5.12;;;;;;;3.65;55.83;96072.45;1840038;77;21187;-55
2021/04/05 04:35:40;;;;;;;12.45;5.87;;;;;;;4.01;55.12;96071.45;1836610;77;21124;-54
2021/04/05 04:38:08;;;;;;;8.45;5.97;;;;;;;4.55;54.24;96065.16;1852850;76;21548;-54
2021/04/05 04:40:37;;;;;;;10.53;5.42;;;;;;;5.22;52.81;96059.25;1818303;77;21053;-54
2021/04/05 04:43:06;;;;;;;;;;;;;;;5.88;50.83;96055.35;1852032;77;21191;-54
2021/04/05 04:45:34;;;;;;;7.20;5.30;;;;;;;6.37;49.37;96052.84;1849892;77;20218;-54
2021/04/05 04:48:02;;;;;;;8.30;5.60;;;;;;;6.69;47.69;96046.59;1844371;77;21038;-55
2021/04/05 04:50:30;;;;;;;6.67;4.87;;;;;;;6.75;47.05;96039.28;1816530;79;21128;-54
2021/04/05 04:52:58;;;;;;;7.08;4.67;;;;;;;6.66;46.19;96037.31;1818647;77;21191;-54
2021/04/05 04:55:27;;;;;;;8.73;4.62;;;;;;;6.50;45.94;96036.63;1846213;77;21427;-54
2021/04/05 04:58:00;;;;;;;;;;;;;;;6.20;46.71;96029.86;1852489;77;21163;-54
2021/04/05 05:00:31;;;;;;;8.05;4.42;;;;;;;6.08;47.43;96025.02;1848092;77;20261;-54
2021/04/05 05:03:00;;;;;;;7.17;4.65;;;;;;;6.26;47.01;96020.48;1853165;77;21544;-54
2021/04/05 05:05:30;;;;;;;7.35;4.15;;;;;;;6.47;46.60;96024.75;1852839;77;21167;-53
2021/04/05 05:07:59;;;;;;;3.95;3.40;;;;;;;6.59;45.94;96024.43;1841189;77;22308;-53
2021/04/05 05:10:27;;;;;;;5.95;3.87;;;;;;;6.76;45.58;96019.03;1810002;79;21156;-54
2021/04/05 05:12:55;;;;;;;5.33;4.00;;;;;;;6.99;44.94;96018.83;1826817;77;21219;-53
2021/04/05 05:15:23;;;;;;;5.28;4.40;;;;;;;7.07;44.47;96011.89;1818625;77;21060;-53
2021/04/05 05:17:52;;;;;;;6.50;4.35;;;;;;;7.10;44.43;96012.13;1851003;77;21052;-53
2021/04/05 05:20:20;;;;;;;6.87;4.67;;;;;;;7.27;44.21;96007.98;1812197;77;21353;-53
2021/04/05 05:22:53;;;;;;;8.03;5.20;;;;;;;7.60;43.32;96017.41;1809899;78;21145;-55
2021/04/05 05:25:22;;;;;;;7.03;5.40;;;;;;;7.74;42.22;96007.80;1819493;77;21177;-54
2021/04/05 05:27:56;;;;;;;8.10;5.30;;;;;;;7.74;42.88;96005.21;1838632;78;21089;-54
2021/04/05 05:30:26;;;;;;;7.97;5.25;;;;;;;8.08;42.03;96003.36;1834897;78;21037;-54
2021/04/05 05:32:54;;;;;;;6.53;5.10;;;;;;;8.38;41.65;95991.31;1838549;78;21359;-54
2021/04/05 05:35:23;;;;;;;;;;;;;;;8.60;40.85;95990.66;1854255;77;21561;-54
2021/04/05 05:37:51;;;;;;;10.85;6.92;;;;;;;8.98;40.75;95994.79;1852416;77;20488;-54
2021/04/05 05:40:25;;;;;;;10.90;7.60;;;;;;;9.75;40.05;95992.91;1849903;77;21105;-54
2021/04/05 05:43:41;;;;;;;12.07;7.97;;;;;;;10.54;38.64;95989.38;1847484;77;21128;-54
2021/04/05 05:46:35;;;;;;;28.30;10.95;;;;;;;11.12;38.08;95986.90;1845730;77;21140;-54
2021/04/05 05:49:28;;;;;;;21.12;6.70;;;;;;;12.12;36.82;95980.66;1837413;77;21053;-54
2021/04/05 05:52:20;;;;;;;55.63;11.33;;;;;;;13.07;34.56;95978.41;1802320;78;21432;-54
2021/04/05 05:55:37;;;;;;;53.05;11.50;;;;;;;13.88;33.58;95964.09;1762842;81;21597;-54
2021/04/05 05:58:14;;;;;;;60.80;15.15;;;;;;;14.66;32.18;95964.99;1764709;80;21081;-55
2021/04/05 06:01:09;;;;;;;18.07;6.10;;;;;;;15.14;31.09;95961.64;1805323;78;22263;-54
2021/04/05 06:04:01;;;;;;;29.23;8.55;;;;;;;15.38;30.07;95961.80;1825480;77;21568;-55
2021/04/05 06:06:50;;;;;;;14.63;7.22;;;;;;;15.46;30.03;95955.33;1792976;77;21093;-54
2021/04/05 06:09:41;;;;;;;16.77;6.37;;;;;;;15.82;29.00;95943.92;1819553;77;21064;-54
2021/04/05 06:12:23;;;;;;;9.40;5.72;;;;;;;16.32;28.10;95939.70;1809753;79;21184;-54
2021/04/05 06:15:17;;;;;;;5.55;4.53;;;;;;;16.60;27.27;95935.00;1809767;79;21188;-54
2021/04/05 06:17:56;;;;;;;5.50;4.35;;;;;;;16.98;25.50;95933.26;1812783;77;21109;-54
2021/04/05 06:20:42;;;;;;;4.17;3.70;;;;;;;16.51;26.06;95926.80;1774609;80;21055;-54
2021/04/05 06:23:38;;;;;;;3.85;3.30;;;;;;;16.35;25.83;95921.87;1822703;77;21106;-54
2021/04/05 06:26:50;;;;;;;3.70;3.20;;;;;;;15.81;25.47;95926.11;1821472;77;21034;-54
2021/04/05 06:29:47;;;;;;;4.22;3.20;;;;;;;15.55;26.10;95926.11;1846450;77;21121;-56
2021/04/05 06:32:58;;;;;;;3.87;3.47;;;;;;;15.21;26.12;95927.38;1842110;77;21084;-53
2021/04/05 06:35:57;;;;;;;3.92;3.33;;;;;;;15.30;26.05;95922.55;1849200;77;21033;-54
2021/04/05 06:38:37;;;;;;;3.98;3.58;;;;;;;15.41;25.57;95917.06;1846964;77;21081;-54
2021/04/05 06:41:36;;;;;;;3.95;3.25;;;;;;;15.10;25.80;95923.23;1841908;77;21054;-54
2021/04/05 06:44:50;;;;;;;5.80;3.83;;;;;;;14.84;26.04;95921.41;1848178;77;21362;-54
2021/04/05 06:47:47;;;;;;;3.42;2.90;;;;;;;15.05;26.36;95919.77;1839934;77;21139;-54
2021/04/05 06:50:36;;;;;;;3.05;2.75;;;;;;;15.04;26.03;95914.70;1817571;77;21053;-54
2021/04/05 06:53:24;;;;;;;;;;;;;;;15.00;26.01;95918.57;1773401;77;21159;-55
2021/04/05 06:56:01;;;;;;;4.72;3.10;;;;;;;15.34;26.05;95917.33;1839916;77;20225;-54
2021/04/05 06:58:36;;;;;;;3.12;2.85;;;;;;;15.70;24.63;95904.62;1840197;77;21486;-54
2021/04/05 07:01:22;;;;;;;3.62;3.22;;;;;;;15.51;24.65;95902.58;1808861;77;21106;-54
2021/04/05 07:04:16;;;;;;;4.50;3.20;;;;;;;15.39;25.38;95913.77;1820226;77;21102;-56
2021/04/05 07:06:54;;;;;;;4.15;3.15;;;;;;;15.98;25.55;95910.48;1846937;77;21473;-54
2021/04/05 07:09:37;;;;;;;3.90;3.60;;;;;;;16.51;24.20;95902.76;1832700;77;21042;-54
2021/04/05 07:12:38;;;;;;;3.87;3.40;;;;;;;16.62;23.91;95895.56;1818988;78;22833;-56
2021/04/05 07:15:46;;;;;;;5.42;3.60;;;;;;;16.64;23.69;95915.84;1818807;78;21183;-53
2021/04/05 07:18:41;;;;;;;6.70;2.62;;;;;;;16.26;23.57;95898.45;1838275;77;21490;-55
2021/04/05 07:21:41;;;;;;;6.58;4.30;;;;;;;15.66;23.72;95905.42;1852399;77;21088;-54
2021/04/05 07:24:47;;;;;;;6.17;3.75;;;;;;;14.59;24.66;95899.94;1843460;77;21580;-54
2021/04/05 07:27:20;;;;;;;5.37;3.87;;;;;;;14.51;25.56;95905.92;1813016;78;21146;-55
2021/04/05 07:33:36;;;;;;;4.30;3.70;;;;;;;16.17;24.61;95892.39;1888605;75;22188;-54
2021/04/05 07:36:34;;;;;;;4.00;3.20;;;;;;;16.83;23.57;95884.59;1775327;80;21567;-54
2021/04/05 07:39:26;;;;;;;4.05;2.83;;;;;;;17.20;22.21;95883.27;1847830;77;21209;-54
2021/04/05 07:42:00;;;;;;;2.92;2.70;;;;;;;16.29;22.87;95879.81;1849853;77;20982;-54
2021/04/05 07:45:00;;;;;;;4.28;3.85;;;;;;;15.83;23.16;95884.91;1849873;77;21048;-55
2021/04/05 07:47:55;;;;;;;5.50;3.60;;;;;;;15.63;23.10;95880.89;1833280;77;21172;-54
2021/04/05 07:50:40;;;;;;;4.00;3.50;;;;;;;15.44;24.02;95889.78;1839928;77;21136;-54
2021/04/05 07:53:37;;;;;;;6.50;3.10;;;;;;;15.70;24.04;95884.51;1822079;77;22120;-54
2021/04/05 07:56:16;;;;;;;4.00;2.65;;;;;;;16.06;23.42;95879.10;1849790;77;21013;-53
2021/04/05 07:59:09;;;;;;;;;;;;;;;16.05;23.38;95877.95;1841602;77;20982;-54
2021/04/05 08:02:12;;;;;;;3.92;2.77;;;;;;;15.80;22.85;95864.30;1816095;79;20708;-53
2021/04/05 08:05:23;;;;;;;2.90;2.70;;;;;;;14.63;24.73;95869.98;1816780;78;21049;-55
2021/04/05 08:08:41;;;;;;;4.42;2.83;;;;;;;14.24;25.36;95866.34;1816457;78;21191;-55
2021/04/05 08:11:52;;;;;;;4.03;3.25;;;;;;;14.31;24.78;95858.28;1813939;77;21505;-54
2021/04/05 08:14:41;;;;;;;5.42;3.55;;;;;;;14.08;25.76;95848.28;1822060;78;21466;-55
2021/04/05 08:17:55;;;;;;;4.08;3.12;;;;;;;14.06;25.56;95839.79;1789103;80;21164;-56
2021/04/05 08:20:40;;;;;;;5.03;3.10;;;;;;;14.60;25.04;95815.47;1789620;80;21153;-54
2021/04/05 08:23:47;;;;;;;4.62;3.90;;;;;;;14.64;25.14;95832.48;1789569;79;21401;-55
2021/04/05 08:26:27;;;;;;;5.15;3.27;;;;;;;14.72;24.49;95824.70;1807049;79;21139;-55
2021/04/05 08:29:09;;;;;;;3.50;3.15;;;;;;;14.51;25.04;95823.70;1816482;78;21151;-53
2021/04/05 08:32:01;;;;;;;5.40;3.72;;;;;;;14.72;25.08;95824.70;1815564;78;21049;-54
2021/04/05 08:35:04;;;;;;;6.70;5.95;;;;;;;15.17;23.80;95811.89;1814470;78;21084;-58
2021/04/05 08:37:55;;;;;;;4.45;2.92;;;;;;;14.72;24.27;95807.73;1814481;79;21426;-54
2021/04/05 08:40:44;;;;;;;4.33;2.83;;;;;;;14.18;25.20;95809.89;1753599;81;21608;-54
2021/04/05 08:43:53;;;;;;;4.92;2.77;;;;;;;14.50;25.31;95812.91;1753200;81;21151;-55
2021/04/05 08:46:25;;;;;;;4.33;2.72;;;;;;;14.94;23.60;95802.97;1714791;83;21492;-54
2021/04/05 08:48:56;;;;;;;2.75;2.50;;;;;;;14.43;24.09;95783.19;1714613;83;21185;-54
2021/04/05 08:51:28;;;;;;;2.95;2.65;;;;;;;14.04;25.05;95796.05;1714546;83;21265;-55
2021/04/05 08:53:57;;;;;;;3.95;3.00;;;;;;;14.15;24.72;95800.24;1727392;82;21172;-54
2021/04/05 08:56:37;;;;;;;2.80;2.50;;;;;;;14.26;24.76;95795.26;1706886;82;21112;-54
2021/04/05 08:59:12;;;;;;;4.65;3.12;;;;;;;14.45;23.84;95789.06;1744243;82;21112;-54
2021/04/05 09:01:47;;;;;;;3.25;2.95;;;;;;;14.58;23.93;95789.48;1703176;82;21061;-54
2021/04/05 09:04:24;;;;;;;2.90;2.60;;;;;;;14.96;23.53;95784.03;1744353;82;22395;-55
2021/04/05 09:07:25;;;;;;;2.55;2.35;;;;;;;15.06;23.08;95796.48;1744284;82;21168;-54
2021/04/05 09:09:56;;;;;;;2.95;2.40;;;;;;;15.35;24.04;95790.91;1744057;82;21144;-53
2021/04/05 09:12:26;;;;;;;5.55;3.00;;;;;;;15.57;22.94;95773.00;1744056;82;21078;-54
2021/04/05 09:15:28;;;;;;;8.35;2.90;;;;;;;15.48;22.90;95775.25;1732614;82;21072;-54
2021/04/05 09:18:28;;;;;;;5.92;3.20;;;;;;;15.54;22.93;95764.17;1700647;84;21148;-54
2021/04/05 09:21:25;;;;;;;4.80;3.20;;;;;;;15.24;23.18;95763.25;1738092;82;21072;-54
2021/04/05 09:24:50;;;;;;;3.05;2.75;;;;;;;15.09;22.71;95768.75;1724988;81;21197;-54
2021/04/05 09:28:17;;;;;;;6.78;3.27;;;;;;;15.04;22.99;95759.26;1714561;83;21084;-55
2021/04/05 09:30:56;;;;;;;7.03;3.20;;;;;;;14.64;23.76;95765.91;1701281;84;21175;-54
2021/04/05 09:33:36;;;;;;;;;;;;;;;14.78;24.06;95755.37;1681906;85;21370;-55
2021/04/05 09:36:50;;;;;;;5.22;2.70;;;;;;;15.05;23.40;95736.09;1662461;86;20243;-54
2021/04/05 09:39:48;;;;;;;5.03;2.70;;;;;;;14.86;23.94;95749.69;1735363;82;21528;-54
2021/04/05 09:42:46;;;;;;;3.08;2.77;;;;;;;14.73;24.85;95725.80;1750245;82;21603;-54
2021/04/05 09:45:39;;;;;;;5.90;2.97;;;;;;;14.98;23.34;95741.59;1750389;82;21163;-54
2021/04/05 09:48:41;;;;;;;4.53;3.37;;;;;;;14.53;24.00;95697.27;1730530;81;21412;-54
2021/04/05 09:51:32;;;;;;;5.05;3.00;;;;;;;14.02;24.94;95732.80;1720020;83;21186;-54
2021/04/05 09:54:28;;;;;;;4.53;2.67;;;;;;;13.96;24.52;95729.48;1719843;83;21084;-54
2021/04/05 09:57:02;;;;;;;4.87;3.05;;;;;;;13.61;25.25;95712.39;1719716;83;21085;-54
2021/04/05 09:59:52;;;;;;;3.65;2.90;;;;;;;13.64;25.64;95731.33;1720369;82;21085;-55
2021/04/05 10:02:34;;;;;;;5.35;2.72;;;;;;;13.65;24.91;95730.34;1720175;83;23538;-54
2021/04/05 10:05:04;;;;;;;5.10;2.60;;;;;;;13.69;24.36;95722.08;1772122;80;21159;-54
2021/04/05 10:07:33;;;;;;;4.00;2.65;;;;;;;13.22;24.83;95715.70;1784214;79;21096;-54
2021/04/05 10:10:02;;;;;;;2.95;2.65;;;;;;;12.73;26.03;95708.61;1784182;79;21053;-54
2021/04/05 10:12:30;;;;;;;;;;;;;;;12.82;26.19;95704.66;1786618;80;21073;-54
2021/04/05 10:15:00;;;;;;;2.87;2.65;;;;;;;13.15;26.33;95704.23;1784069;80;21207;-55
2021/04/05 10:17:28;;;;;;;4.33;2.80;;;;;;;13.34;24.89;95686.37;1792644;79;21060;-54
2021/04/05 10:19:57;;;;;;;4.03;2.60;;;;;;;13.25;24.87;95692.78;1816123;79;21561;-54
2021/04/05 10:22:25;;;;;;;3.77;2.90;;;;;;;12.96;25.27;95696.88;1816075;78;21568;-54
2021/04/05 10:24:58;;;;;;;3.33;2.70;;;;;;;12.46;25.74;95681.59;1788212;78;21135;-54
2021/04/05 10:27:26;;;;;;;7.45;2.42;;;;;;;12.12;25.95;95693.78;1814723;79;21204;-54
2021/04/05 10:29:56;;;;;;;4.28;2.87;;;;;;;11.92;26.07;95684.73;1789341;79;21116;-54
2021/04/05 10:32:26;;;;;;;6.12;2.75;;;;;;;11.77;26.71;95680.87;1816132;79;21521;-54
2021/04/05 10:34:57;;;;;;;2.92;2.40;;;;;;;11.76;27.37;95670.15;1805340;78;21108;-54
2021/04/05 10:37:32;;;;;;;4.33;2.60;;;;;;;11.92;26.39;95661.80;1819014;78;21104;-54
2021/04/05 10:40:01;;;;;;;3.77;2.92;;;;;;;12.00;26.69;95678.01;1791081;78;22285;-54
2021/04/05 10:43:07;;;;;;;3.90;2.80;;;;;;;11.89;26.18;95677.64;1789304;80;21041;-54
2021/04/05 10:45:38;;;;;;;7.87;2.92;;;;;;;11.73;27.16;95666.52;1703323;84;21076;-54
2021/04/05 10:48:19;;;;;;;5.90;2.90;;;;;;;12.02;26.68;95658.70;1669349;86;21100;-54
2021/04/05 10:51:00;;;;;;;5.92;3.20;;;;;;;12.13;26.04;95656.42;1669447;86;21186;-54
2021/04/05 10:53:27;;;;;;;4.30;3.00;;;;;;;12.05;26.20;95666.22;1667368;85;22256;-54
2021/04/05 10:56:01;;;;;;;8.40;3.47;;;;;;;12.13;26.23;95649.92;1650059;87;21118;-54
2021/04/05 10:58:33;;;;;;;5.80;2.60;;;;;;;12.20;27.28;95644.98;1650079;87;21159;-54
2021/04/05 11:01:01;;;;;;;7.75;2.80;;;;;;;12.41;26.73;95639.58;1650237;87;21108;-53
2021/04/05 11:03:29;;;;;;;3.83;3.15;;;;;;;12.49;26.14;95626.18;1650188;87;21159;-54
2021/04/05 11:06:00;;;;;;;4.45;3.15;;;;;;;12.23;26.75;95654.61;1624179;87;21310;-53
2021/04/05 11:08:30;;;;;;;7.17;2.90;;;;;;;11.90;27.09;95649.39;1650140;87;21224;-54
2021/04/05 11:11:15;;;;;;;6.37;3.10;;;;;;;11.62;26.85;95648.48;1649855;86;21174;-53
2021/04/05 11:13:52;;;;;;;7.65;3.52;;;;;;;11.36;27.70;95649.82;1646323;87;21527;-54
2021/04/05 11:16:21;;;;;;;6.47;3.40;;;;;;;11.42;28.28;95637.59;1648841;85;21617;-54
2021/04/05 11:18:53;;;;;;;;;;;;;;;11.70;27.70;95632.53;1650957;87;21467;-54
2021/04/05 11:21:44;;;;;;;9.35;3.52;;;;;;;12.00;27.01;95637.22;1873567;75;28562;-55
2021/04/05 11:24:13;;;;;;;3.58;3.27;;;;;;;11.87;27.33;95635.38;1818991;78;20936;-54
2021/04/05 11:26:44;;;;;;;8.70;4.00;;;;;;;11.74;27.56;95630.47;1808701;79;21137;-55
2021/04/05 11:29:14;;;;;;;8.58;3.90;;;;;;;11.66;28.16;95614.75;1826962;78;21130;-55
2021/04/05 11:31:44;;;;;;;5.22;3.50;;;;;;;11.61;27.62;95630.75;1838855;77;21107;-56
2021/04/05 11:34:14;;;;;;;10.70;3.67;;;;;;;11.48;27.79;95607.67;1840090;77;21574;-55
2021/04/05 11:36:47;;;;;;;9.20;3.90;;;;;;;11.37;28.58;95610.41;1812320;78;21094;-55
2021/04/05 11:39:19;;;;;;;5.30;3.10;;;;;;;11.55;29.37;95618.33;1841303;78;22098;-54
2021/04/05 11:41:52;;;;;;;3.98;3.30;;;;;;;11.77;28.08;95606.80;1841530;77;21043;-54
2021/04/05 11:44:28;;;;;;;4.00;3.15;;;;;;;11.69;27.80;95593.69;1841527;77;21031;-55
2021/04/05 11:46:57;;;;;;;8.40;3.72;;;;;;;11.57;27.63;95606.02;1811595;78;21036;-54
2021/04/05 11:49:31;;;;;;;;;;;;;;;11.50;28.01;95575.06;1844266;77;21050;-54
2021/04/05 11:52:14;;;;;;;5.75;3.33;;;;;;;11.47;28.41;95588.33;1841686;77;22260;-55
2021/04/05 11:54:58;;;;;;;4.83;3.45;;;;;;;11.52;28.56;95582.23;1840748;77;21115;-53
2021/04/05 11:57:40;;;;;;;5.95;3.52;;;;;;;11.67;28.41;95571.73;1841561;78;21047;-54
2021/04/05 12:00:13;;;;;;;5.15;3.10;;;;;;;11.75;27.53;95571.86;1841600;77;21067;-55
2021/04/05 12:03:10;;;;;;;4.05;3.22;;;;;;;11.78;27.88;95561.67;1841551;78;21174;-54
2021/04/05 12:05:47;;;;;;;5.72;3.20;;;;;;;11.94;27.55;95562.39;1839391;78;22257;-55
2021/04/05 12:08:22;;;;;;;3.77;3.35;;;;;;;11.88;27.42;95547.35;1835697;77;21181;-54
2021/04/05 12:10:53;;;;;;;4.30;2.90;;;;;;;11.88;27.54;95544.27;1808386;78;21162;-55
2021/04/05 12:13:41;;;;;;;4.12;3.10;;;;;;;11.99;27.74;95543.31;1808524;78;21126;-53
2021/04/05 12:16:11;;;;;;;4.15;3.33;;;;;;;12.26;28.09;95534.70;1733678;81;21239;-53
2021/04/05 12:18:39;;;;;;;5.50;3.40;;;;;;;12.47;26.91;95529.74;1772156;79;21193;-53
2021/04/05 12:21:12;;;;;;;4.45;3.70;;;;;;;12.50;27.09;95509.45;1790606;79;21088;-55
2021/04/05 12:23:41;;;;;;;3.87;3.33;;;;;;;12.59;26.67;95506.44;1769557;80;21175;-54
2021/04/05 12:26:10;;;;;;;5.22;3.30;;;;;;;12.64;26.66;95507.30;1759687;80;26610;-53
2021/04/05 12:28:42;;;;;;;6.47;3.33;;;;;;;12.61;26.74;95514.09;1741226;81;21129;-55
2021/04/05 12:31:10;;;;;;;4.70;3.40;;;;;;;12.67;27.01;95501.31;1740289;81;21989;-55
2021/04/05 12:33:40;;;;;;;4.53;3.40;;;;;;;12.70;26.39;95493.71;1766387;80;21065;-51